createdAt,value
2019-02-09T00:01:46.669Z,99.90
2019-02-09T00:04:15.701Z,99.90
2019-02-09T00:06:44.734Z,99.90
2019-02-09T00:09:13.746Z,99.90
2019-02-09T00:11:42.697Z,99.90
2019-02-09T00:14:11.695Z,99.90
2019-02-09T00:16:40.660Z,99.90
2019-02-09T00:19:09.679Z,99.90
2019-02-09T00:21:38.641Z,99.90
2019-02-09T00:24:07.648Z,99.90
2019-02-09T00:26:37.016Z,99.90
2019-02-09T00:29:06.104Z,99.90
2019-02-09T00:31:35.257Z,99.90
2019-02-09T00:34:04.352Z,99.90
2019-02-09T00:36:43.532Z,99.90
2019-02-09T00:39:12.432Z,99.90
2019-02-09T00:41:41.470Z,99.90
2019-02-09T00:44:10.459Z,99.90
2019-02-09T00:46:39.486Z,99.90
2019-02-09T00:49:08.516Z,99.90
2019-02-09T00:51:37.561Z,99.90
2019-02-09T00:54:06.605Z,99.90
2019-02-09T00:56:35.599Z,99.90
2019-02-09T00:59:05.232Z,99.90
2019-02-09T01:01:34.237Z,99.90
2019-02-09T01:04:03.350Z,99.90
2019-02-09T01:06:32.492Z,99.90
2019-02-09T01:09:01.556Z,99.90
2019-02-09T01:11:30.572Z,99.90
2019-02-09T01:14:00.722Z,99.90
2019-02-09T01:16:29.732Z,99.90
2019-02-09T01:18:58.785Z,99.90
2019-02-09T01:21:27.733Z,99.90
2019-02-09T01:23:56.756Z,99.90
2019-02-09T01:26:25.854Z,99.90
2019-02-09T01:28:54.905Z,99.90
2019-02-09T01:31:23.888Z,99.90
2019-02-09T01:33:52.940Z,99.90
2019-02-09T01:36:21.886Z,99.90
2019-02-09T01:38:50.915Z,99.90
2019-02-09T01:41:19.912Z,99.90
2019-02-09T01:43:48.940Z,99.90
2019-02-09T01:46:17.955Z,99.90
2019-02-09T01:48:46.931Z,99.90
2019-02-09T01:51:15.975Z,99.90
2019-02-09T01:53:44.968Z,99.90
2019-02-09T01:56:13.851Z,99.90
2019-02-09T01:58:42.834Z,99.90
2019-02-09T02:01:12.215Z,99.90
2019-02-09T02:03:41.096Z,99.90
2019-02-09T02:06:10.122Z,99.90
2019-02-09T02:08:39.216Z,99.90
2019-02-09T02:11:08.264Z,99.90
2019-02-09T02:13:37.306Z,99.90
2019-02-09T02:16:09.086Z,99.90
2019-02-09T02:18:38.119Z,99.90
2019-02-09T02:21:07.136Z,99.90
2019-02-09T02:23:36.143Z,99.90
2019-02-09T02:26:05.568Z,99.90
2019-02-09T02:28:34.512Z,99.90
2019-02-09T02:31:03.725Z,99.90
2019-02-09T02:33:32.758Z,99.90
2019-02-09T02:36:01.745Z,99.90
2019-02-09T02:38:30.713Z,99.90
2019-02-09T02:40:59.681Z,99.90
2019-02-09T02:43:28.764Z,99.90
2019-02-09T02:45:57.774Z,99.90
2019-02-09T02:48:26.856Z,99.90
2019-02-09T02:50:55.890Z,99.90
2019-02-09T02:53:24.762Z,99.90
2019-02-09T02:55:53.824Z,99.90
2019-02-09T02:58:22.716Z,99.90
2019-02-09T03:00:51.779Z,99.90
2019-02-09T03:03:20.644Z,99.90
2019-02-09T03:05:49.604Z,99.90
2019-02-09T03:08:18.629Z,99.90
2019-02-09T03:10:47.613Z,99.90
2019-02-09T03:13:16.637Z,99.90
2019-02-09T03:15:45.676Z,99.90
2019-02-09T03:18:14.687Z,99.90
2019-02-09T03:20:43.723Z,99.90
2019-02-09T03:23:12.733Z,99.90
2019-02-09T03:25:41.757Z,99.90
2019-02-09T03:28:10.781Z,99.90
2019-02-09T03:30:47.972Z,99.90
2019-02-09T03:33:10.465Z,99.90
2019-02-09T03:35:39.467Z,99.90
2019-02-09T03:38:08.600Z,99.90
2019-02-09T03:40:37.623Z,99.90
2019-02-09T03:43:06.689Z,99.90
2019-02-09T03:45:35.745Z,99.90
2019-02-09T03:48:05.389Z,99.90
2019-02-09T03:50:34.440Z,99.90
2019-02-09T03:53:03.468Z,99.90
2019-02-09T03:55:32.569Z,99.90
2019-02-09T03:58:01.641Z,99.90
2019-02-09T04:00:31.209Z,99.90
2019-02-09T04:03:00.815Z,99.90
2019-02-09T04:05:29.799Z,99.90
2019-02-09T04:07:58.880Z,99.90
2019-02-09T04:10:28.433Z,99.90
2019-02-09T04:12:57.477Z,99.90
2019-02-09T04:15:26.749Z,99.90
2019-02-09T04:17:55.985Z,99.90
2019-02-09T04:20:25.643Z,99.90
2019-02-09T04:22:55.288Z,99.90
2019-02-09T04:25:24.826Z,99.90
2019-02-09T04:27:54.157Z,99.90
2019-02-09T04:30:25.187Z,99.90
2019-02-09T04:32:54.429Z,99.90
2019-02-09T04:35:23.503Z,99.90
2019-02-09T04:37:52.961Z,99.90
2019-02-09T04:40:27.092Z,99.90
2019-02-09T04:42:56.408Z,99.90
2019-02-09T04:45:25.733Z,99.90
2019-02-09T04:47:54.708Z,99.90
2019-02-09T04:50:23.863Z,99.90
2019-02-09T04:52:53.191Z,99.90
2019-02-09T04:55:23.229Z,99.90
2019-02-09T04:57:52.254Z,99.90
2019-02-09T05:00:23.299Z,99.90
2019-02-09T05:02:52.623Z,99.90
2019-02-09T05:05:21.662Z,99.90
2019-02-09T05:07:51.000Z,99.90
2019-02-09T05:10:20.780Z,99.90
2019-02-09T05:12:50.082Z,99.90
2019-02-09T05:15:19.509Z,99.90
2019-02-09T05:17:48.500Z,99.90
2019-02-09T05:20:19.032Z,99.90
2019-02-09T05:22:48.055Z,98.80
2019-02-09T05:25:18.235Z,98.70
2019-02-09T05:27:47.230Z,97.50
2019-02-09T05:30:18.433Z,97.50
2019-02-09T05:32:47.476Z,95.60
2019-02-09T05:35:16.629Z,95.10
2019-02-09T05:37:45.676Z,95.90
2019-02-09T05:40:16.645Z,94.40
2019-02-09T05:42:45.706Z,94.70
2019-02-09T05:45:17.301Z,94.30
2019-02-09T05:47:46.443Z,92.80
2019-02-09T05:50:16.932Z,92.00
2019-02-09T05:52:46.120Z,93.40
2019-02-09T05:55:15.701Z,91.00
2019-02-09T05:57:44.946Z,90.20
2019-02-09T06:00:29.045Z,82.90
2019-02-09T06:02:58.049Z,83.60
2019-02-09T06:05:27.087Z,82.60
2019-02-09T06:08:08.228Z,80.80
2019-02-09T06:10:37.180Z,76.30
2019-02-09T06:13:06.223Z,77.30
2019-02-09T06:15:35.533Z,77.60
2019-02-09T06:18:05.142Z,75.80
2019-02-09T06:20:34.188Z,76.10
2019-02-09T06:23:03.305Z,73.80
2019-02-09T06:25:51.428Z,71.10
2019-02-09T06:28:20.345Z,71.10
2019-02-09T06:30:49.394Z,68.10
2019-02-09T06:33:18.311Z,67.30
2019-02-09T06:35:47.332Z,66.70
2019-02-09T06:38:16.351Z,66.30
2019-02-09T06:40:45.334Z,66.40
2019-02-09T06:43:14.385Z,68.90
2019-02-09T06:45:43.327Z,72.30
2019-02-09T06:48:21.986Z,74.20
2019-02-09T06:50:51.018Z,90.80
2019-02-09T06:53:20.063Z,99.00
2019-02-09T06:55:49.066Z,99.90
2019-02-09T06:58:18.078Z,99.90
2019-02-09T07:00:47.092Z,99.90
2019-02-09T07:03:16.181Z,99.90
2019-02-09T07:05:45.210Z,99.90
2019-02-09T07:08:14.283Z,99.90
2019-02-09T07:10:43.257Z,99.90
2019-02-09T07:13:12.280Z,99.90
2019-02-09T07:15:41.277Z,99.90
2019-02-09T07:18:16.539Z,99.90
2019-02-09T07:20:45.530Z,99.90
2019-02-09T07:23:14.540Z,99.90
2019-02-09T07:25:43.563Z,99.90
2019-02-09T07:28:12.600Z,99.90
2019-02-09T07:30:41.579Z,99.90
2019-02-09T07:33:10.671Z,99.90
2019-02-09T07:35:39.583Z,99.90
2019-02-09T07:38:08.664Z,99.90
2019-02-09T07:40:37.608Z,99.90
2019-02-09T07:43:06.714Z,99.90
2019-02-09T07:45:35.751Z,99.90
2019-02-09T07:48:05.572Z,99.90
2019-02-09T07:50:34.573Z,99.90
2019-02-09T07:53:06.340Z,99.90
2019-02-09T07:55:35.333Z,99.90
2019-02-09T07:58:23.447Z,99.90
2019-02-09T08:00:52.506Z,99.90
2019-02-09T08:03:21.547Z,99.90
2019-02-09T08:05:50.565Z,99.90
2019-02-09T08:08:20.509Z,99.90
2019-02-09T08:10:49.508Z,99.90
2019-02-09T08:13:18.524Z,99.90
2019-02-09T08:15:47.624Z,99.90
2019-02-09T08:18:16.619Z,99.90
2019-02-09T08:20:45.674Z,99.90
2019-02-09T08:23:15.306Z,99.90
2019-02-09T08:25:44.336Z,99.90
2019-02-09T08:28:13.667Z,99.90
2019-02-09T08:30:44.268Z,99.90
2019-02-09T08:33:13.328Z,99.90
2019-02-09T08:35:42.760Z,99.90
2019-02-09T08:38:13.152Z,99.90
2019-02-09T08:40:42.184Z,99.90
2019-02-09T08:43:11.219Z,99.90
2019-02-09T08:45:40.143Z,99.90
2019-02-09T08:48:09.282Z,99.90
2019-02-09T08:50:47.480Z,99.90
2019-02-09T08:53:16.508Z,99.90
2019-02-09T08:55:45.573Z,99.90
2019-02-09T08:58:33.737Z,99.90
2019-02-09T09:01:03.075Z,99.90
2019-02-09T09:03:33.001Z,99.90
2019-02-09T09:06:02.016Z,99.90
2019-02-09T09:08:31.068Z,99.90
2019-02-09T09:11:01.404Z,99.90
2019-02-09T09:13:30.667Z,99.90
2019-02-09T09:16:01.093Z,99.90
2019-02-09T09:18:30.040Z,99.90
2019-02-09T09:21:01.796Z,99.90
2019-02-09T09:23:30.839Z,99.90
2019-02-09T09:25:59.861Z,99.90
2019-02-09T09:28:28.902Z,99.90
2019-02-09T09:30:57.905Z,99.90
2019-02-09T09:33:46.013Z,99.90
2019-02-09T09:36:15.416Z,99.90
2019-02-09T09:38:52.124Z,99.90
2019-02-09T09:41:21.160Z,99.90
2019-02-09T09:43:50.188Z,99.90
2019-02-09T09:46:19.388Z,99.90
2019-02-09T09:48:48.400Z,99.90
2019-02-09T09:51:17.507Z,99.90
2019-02-09T09:53:46.531Z,99.90
2019-02-09T09:56:15.549Z,99.90
2019-02-09T09:59:04.536Z,99.90
2019-02-09T10:01:33.482Z,99.90
2019-02-09T10:04:02.501Z,99.90
2019-02-09T10:06:31.532Z,99.90
2019-02-09T10:09:00.561Z,99.90
2019-02-09T10:11:29.596Z,99.90
2019-02-09T10:13:58.521Z,99.90
2019-02-09T10:16:27.560Z,99.90
2019-02-09T10:18:56.474Z,99.90
2019-02-09T10:21:25.565Z,99.90
2019-02-09T10:23:54.564Z,99.90
2019-02-09T10:26:23.585Z,99.90
2019-02-09T10:28:52.679Z,99.90
2019-02-09T10:31:21.569Z,99.90
2019-02-09T10:33:50.517Z,99.90
2019-02-09T10:36:19.558Z,99.90
2019-02-09T10:38:48.504Z,99.90
2019-02-09T10:41:17.524Z,99.90
2019-02-09T10:43:46.540Z,99.80
2019-02-09T10:46:15.572Z,94.50
2019-02-09T10:48:44.519Z,80.90
2019-02-09T10:51:13.539Z,64.20
2019-02-09T10:53:42.558Z,57.20
2019-02-09T10:56:11.578Z,53.50
2019-02-09T10:58:40.679Z,50.90
2019-02-09T11:01:16.118Z,48.00
2019-02-09T11:03:45.230Z,47.70
2019-02-09T11:06:14.272Z,45.70
2019-02-09T11:08:43.309Z,43.90
2019-02-09T11:11:12.366Z,40.70
2019-02-09T11:13:41.402Z,38.20
2019-02-09T11:16:10.452Z,38.10
2019-02-09T11:18:39.496Z,38.30
2019-02-09T11:21:08.512Z,36.40
2019-02-09T11:23:37.536Z,36.80
2019-02-09T11:26:06.581Z,38.20
2019-02-09T11:28:35.542Z,39.70
2019-02-09T11:31:04.745Z,40.00
2019-02-09T11:33:33.777Z,39.00
2019-02-09T11:36:02.796Z,39.30
2019-02-09T11:38:31.828Z,37.60
2019-02-09T11:41:01.213Z,38.00
2019-02-09T11:43:30.545Z,38.70
2019-02-09T11:45:59.542Z,39.80
2019-02-09T11:48:28.554Z,42.60
2019-02-09T11:50:57.525Z,44.90
2019-02-09T11:53:26.568Z,47.00
2019-02-09T11:55:57.047Z,46.70
2019-02-09T11:58:26.076Z,42.80
2019-02-09T12:00:55.107Z,38.40
2019-02-09T12:03:24.180Z,37.20
2019-02-09T12:05:53.196Z,37.10
2019-02-09T12:08:22.200Z,36.40
2019-02-09T12:10:51.261Z,34.70
2019-02-09T12:13:20.355Z,34.20
2019-02-09T12:15:49.364Z,34.60
2019-02-09T12:18:19.808Z,34.70
2019-02-09T12:20:48.744Z,34.40
2019-02-09T12:23:17.771Z,34.30
2019-02-09T12:25:46.775Z,35.50
2019-02-09T12:28:15.824Z,36.00
2019-02-09T12:30:45.229Z,34.70
2019-02-09T12:33:22.524Z,35.40
2019-02-09T12:35:44.997Z,35.00
2019-02-09T12:38:14.054Z,34.10
2019-02-09T12:40:43.038Z,33.40
2019-02-09T12:43:12.060Z,34.60
2019-02-09T12:45:41.998Z,36.40
2019-02-09T12:48:11.083Z,36.70
2019-02-09T12:50:40.552Z,36.40
2019-02-09T12:53:10.262Z,35.00
2019-02-09T12:55:39.309Z,34.90
2019-02-09T12:58:08.359Z,34.20
2019-02-09T13:00:37.922Z,34.70
2019-02-09T13:03:10.720Z,32.30
2019-02-09T13:05:39.772Z,32.70
2019-02-09T13:08:08.828Z,32.20
2019-02-09T13:10:37.911Z,33.00
2019-02-09T13:13:06.967Z,33.70
2019-02-09T13:15:36.018Z,34.40
2019-02-09T13:18:05.881Z,34.30
2019-02-09T13:20:35.275Z,33.60
2019-02-09T13:23:05.748Z,34.80
2019-02-09T13:25:34.774Z,36.80
2019-02-09T13:28:04.406Z,38.90
2019-02-09T13:30:33.604Z,40.40
2019-02-09T13:33:02.638Z,40.70
2019-02-09T13:35:39.958Z,38.70
2019-02-09T13:38:08.977Z,38.10
2019-02-09T13:40:38.008Z,38.70
2019-02-09T13:43:07.552Z,40.50
2019-02-09T13:45:39.110Z,44.40
2019-02-09T13:48:09.034Z,46.70
2019-02-09T13:50:38.847Z,46.60
2019-02-09T13:53:09.059Z,46.20
2019-02-09T13:55:38.068Z,47.70
2019-02-09T13:58:07.326Z,49.40
2019-02-09T14:00:36.922Z,49.40
2019-02-09T14:03:06.879Z,47.80
2019-02-09T14:05:35.936Z,45.90
2019-02-09T14:08:05.812Z,45.60
2019-02-09T14:10:34.875Z,47.20
2019-02-09T14:13:04.107Z,48.40
2019-02-09T14:15:33.903Z,49.60
2019-02-09T14:18:05.673Z,51.00
2019-02-09T14:20:34.810Z,52.40
2019-02-09T14:23:04.309Z,55.50
2019-02-09T14:25:33.463Z,56.70
2019-02-09T14:28:03.215Z,57.30
2019-02-09T14:30:33.290Z,58.70
2019-02-09T14:33:03.957Z,60.40
2019-02-09T14:35:32.936Z,62.10
2019-02-09T14:38:02.252Z,63.20
2019-02-09T14:40:32.567Z,64.20
2019-02-09T14:43:02.136Z,64.90
2019-02-09T14:45:33.281Z,66.20
2019-02-09T14:48:02.326Z,65.40
2019-02-09T14:50:31.367Z,66.30
2019-02-09T14:53:00.580Z,66.60
2019-02-09T14:55:31.494Z,68.90
2019-02-09T14:58:00.601Z,69.10
2019-02-09T15:00:35.732Z,69.50
2019-02-09T15:03:06.060Z,70.10
2019-02-09T15:05:35.168Z,70.00
2019-02-09T15:08:05.104Z,70.80
2019-02-09T15:10:34.183Z,71.90
2019-02-09T15:13:03.215Z,73.50
2019-02-09T15:15:41.231Z,75.10
2019-02-09T15:18:10.699Z,74.30
2019-02-09T15:20:42.955Z,76.60
2019-02-09T15:23:12.006Z,74.70
2019-02-09T15:25:41.079Z,75.50
2019-02-09T15:28:12.555Z,77.40
2019-02-09T15:30:40.872Z,78.00
2019-02-09T15:33:09.923Z,78.60
2019-02-09T15:35:38.947Z,80.20
2019-02-09T15:38:08.012Z,81.40
2019-02-09T15:40:37.049Z,81.80
2019-02-09T15:43:07.875Z,83.30
2019-02-09T15:45:36.933Z,83.90
2019-02-09T15:48:06.653Z,85.20
2019-02-09T15:50:35.699Z,86.20
2019-02-09T15:53:04.767Z,87.20
2019-02-09T15:55:33.798Z,88.60
2019-02-09T15:58:02.821Z,90.00
2019-02-09T16:00:31.885Z,91.00
2019-02-09T16:03:01.244Z,90.50
2019-02-09T16:05:30.543Z,91.90
2019-02-09T16:07:59.568Z,92.10
2019-02-09T16:10:28.683Z,91.30
2019-02-09T16:12:57.739Z,92.20
2019-02-09T16:15:27.387Z,92.00
2019-02-09T16:17:56.431Z,92.40
2019-02-09T16:20:26.044Z,92.90
2019-02-09T16:22:55.071Z,92.40
2019-02-09T16:25:24.631Z,92.80
2019-02-09T16:27:53.668Z,93.40
2019-02-09T16:30:24.385Z,93.10
2019-02-09T16:32:53.811Z,93.90
2019-02-09T16:35:23.444Z,93.80
2019-02-09T16:37:52.975Z,94.10
2019-02-09T16:40:24.718Z,94.90
2019-02-09T16:42:53.797Z,95.80
2019-02-09T16:45:25.380Z,97.20
2019-02-09T16:47:54.516Z,99.10
2019-02-09T16:50:23.584Z,99.40
2019-02-09T16:52:52.604Z,99.90
2019-02-09T16:55:21.689Z,99.90
2019-02-09T16:57:51.013Z,99.90
2019-02-09T17:00:32.393Z,99.90
2019-02-09T17:03:01.595Z,99.90
2019-02-09T17:05:30.623Z,99.90
2019-02-09T17:07:59.644Z,99.90
2019-02-09T17:10:28.667Z,99.90
2019-02-09T17:12:57.695Z,99.90
2019-02-09T17:15:26.772Z,99.90
2019-02-09T17:17:55.788Z,99.90
2019-02-09T17:20:25.196Z,99.90
2019-02-09T17:22:54.513Z,99.90
2019-02-09T17:25:23.763Z,99.90
2019-02-09T17:27:52.830Z,99.90
2019-02-09T17:30:26.125Z,99.90
2019-02-09T17:32:55.201Z,99.90
2019-02-09T17:35:43.308Z,99.90
2019-02-09T17:38:12.328Z,99.90
2019-02-09T17:40:44.071Z,99.90
2019-02-09T17:43:13.280Z,99.90
2019-02-09T17:46:13.968Z,99.90
2019-02-09T17:48:42.964Z,99.90
2019-02-09T17:51:11.968Z,99.90
2019-02-09T17:53:41.012Z,99.90
2019-02-09T17:56:10.040Z,99.90
2019-02-09T17:58:38.964Z,99.90
2019-02-09T18:01:12.693Z,99.90
2019-02-09T18:03:41.656Z,99.90
2019-02-09T18:06:10.989Z,99.90
2019-02-09T18:08:40.059Z,99.90
2019-02-09T18:11:09.150Z,99.90
2019-02-09T18:13:38.124Z,99.90
2019-02-09T18:16:07.139Z,99.90
2019-02-09T18:18:36.080Z,99.90
2019-02-09T18:21:05.098Z,99.90
2019-02-09T18:23:34.303Z,99.90
2019-02-09T18:26:03.320Z,99.90
2019-02-09T18:28:32.513Z,99.90
2019-02-09T18:31:01.531Z,99.90
2019-02-09T18:33:30.521Z,99.90
2019-02-09T18:35:59.528Z,99.90
2019-02-09T18:38:28.609Z,99.90
2019-02-09T18:40:57.611Z,99.90
2019-02-09T18:43:26.659Z,99.90
2019-02-09T18:45:57.777Z,99.90
2019-02-09T18:48:26.388Z,99.90
2019-02-09T18:51:01.287Z,99.90
2019-02-09T18:53:30.265Z,99.90
2019-02-09T18:55:59.263Z,99.90
2019-02-09T18:58:28.274Z,99.90
2019-02-09T19:00:57.295Z,99.90
2019-02-09T19:03:26.321Z,99.90
2019-02-09T19:05:55.347Z,99.90
2019-02-09T19:08:24.381Z,99.90
2019-02-09T19:10:53.524Z,99.90
2019-02-09T19:13:22.567Z,99.90
2019-02-09T19:15:51.568Z,99.90
2019-02-09T19:18:20.523Z,99.90
2019-02-09T19:20:52.787Z,99.90
2019-02-09T19:23:21.759Z,99.90
2019-02-09T19:25:51.724Z,99.90
2019-02-09T19:28:20.717Z,99.90
2019-02-09T19:30:49.951Z,99.90
2019-02-09T19:33:19.164Z,99.90
2019-02-09T19:35:48.165Z,99.90
2019-02-09T19:38:17.212Z,99.90
2019-02-09T19:40:46.229Z,99.90
2019-02-09T19:43:15.241Z,99.90
2019-02-09T19:45:44.355Z,99.90
2019-02-09T19:48:13.386Z,99.90
2019-02-09T19:50:49.787Z,99.90
2019-02-09T19:53:18.800Z,99.90
2019-02-09T19:55:47.796Z,99.90
2019-02-09T19:58:16.885Z,99.90
2019-02-09T20:00:46.081Z,99.90
2019-02-09T20:03:15.109Z,99.90
2019-02-09T20:05:44.475Z,99.90
2019-02-09T20:08:13.828Z,99.90
2019-02-09T20:10:43.212Z,99.90
2019-02-09T20:13:12.335Z,99.90
2019-02-09T20:15:41.975Z,99.90
2019-02-09T20:18:10.994Z,99.90
2019-02-09T20:20:46.824Z,99.90
2019-02-09T20:23:11.116Z,99.90
2019-02-09T20:25:40.120Z,99.90
2019-02-09T20:28:09.462Z,99.90
2019-02-09T20:30:38.532Z,99.90
2019-02-09T20:33:08.316Z,99.90
2019-02-09T20:35:37.342Z,99.90
2019-02-09T20:38:06.912Z,99.90
2019-02-09T20:40:40.936Z,99.90
2019-02-09T20:43:11.691Z,99.90
2019-02-09T20:45:40.650Z,99.90
2019-02-09T20:48:10.872Z,99.90
2019-02-09T20:50:39.896Z,99.90
2019-02-09T20:53:08.922Z,99.90
2019-02-09T20:55:38.147Z,99.90
2019-02-09T20:58:09.318Z,99.90
2019-02-09T21:00:38.381Z,99.90
2019-02-09T21:03:07.384Z,99.90
2019-02-09T21:05:37.043Z,99.90
2019-02-09T21:08:06.882Z,99.90
2019-02-09T21:10:36.572Z,99.90
2019-02-09T21:13:06.443Z,99.90
2019-02-09T21:15:35.702Z,99.90
2019-02-09T21:18:05.369Z,99.90
2019-02-09T21:20:34.567Z,99.90
2019-02-09T21:23:03.649Z,99.90
2019-02-09T21:25:34.179Z,99.90
2019-02-09T21:28:03.207Z,99.90
2019-02-09T21:30:32.243Z,99.90
2019-02-09T21:33:01.244Z,99.90
2019-02-09T21:35:30.635Z,99.90
2019-02-09T21:37:59.825Z,99.90
2019-02-09T21:40:29.352Z,99.90
2019-02-09T21:42:59.248Z,99.90
2019-02-09T21:45:28.774Z,99.90
2019-02-09T21:47:57.772Z,99.90
2019-02-09T21:50:29.135Z,99.90
2019-02-09T21:52:58.220Z,99.90
2019-02-09T21:55:27.236Z,99.90
2019-02-09T21:57:56.196Z,99.90
2019-02-09T22:00:33.806Z,99.90
2019-02-09T22:03:03.005Z,99.90
2019-02-09T22:05:32.019Z,99.90
2019-02-09T22:08:00.962Z,99.90
2019-02-09T22:10:33.939Z,99.90
2019-02-09T22:13:00.819Z,99.90
2019-02-09T22:15:37.989Z,99.90
2019-02-09T22:18:01.043Z,99.90
2019-02-09T22:20:30.072Z,99.90
2019-02-09T22:22:59.176Z,99.90
2019-02-09T22:25:28.240Z,99.90
2019-02-09T22:27:57.418Z,99.90
2019-02-09T22:30:27.670Z,99.90
2019-02-09T22:32:56.924Z,99.90
2019-02-09T22:35:26.810Z,99.90
2019-02-09T22:37:56.481Z,99.90
2019-02-09T22:40:30.660Z,99.90
2019-02-09T22:42:59.667Z,99.90
2019-02-09T22:45:30.117Z,99.90
2019-02-09T22:48:01.855Z,99.90
2019-02-09T22:50:33.282Z,99.90
2019-02-09T22:53:04.725Z,99.90
2019-02-09T22:55:36.614Z,99.90
2019-02-09T22:58:09.055Z,99.90
2019-02-09T23:00:59.416Z,99.90
2019-02-09T23:03:34.775Z,99.90
2019-02-09T23:06:36.432Z,99.90
2019-02-09T23:09:08.188Z,99.90
2019-02-09T23:11:37.220Z,99.90
2019-02-09T23:14:06.248Z,99.90
2019-02-09T23:16:35.276Z,99.90
2019-02-09T23:19:04.819Z,99.90
2019-02-09T23:21:33.832Z,99.90
2019-02-09T23:24:02.865Z,99.90
2019-02-09T23:26:31.913Z,99.90
2019-02-09T23:29:00.938Z,99.90
2019-02-09T23:31:29.956Z,99.90
2019-02-09T23:33:58.977Z,99.90
2019-02-09T23:36:27.972Z,99.90
2019-02-09T23:38:56.935Z,99.90
2019-02-09T23:41:25.876Z,99.90
2019-02-09T23:43:54.816Z,99.90
2019-02-09T23:46:23.880Z,99.90
2019-02-09T23:48:52.837Z,99.90
2019-02-09T23:51:21.952Z,99.90
2019-02-09T23:53:51.076Z,99.90
2019-02-09T23:56:20.008Z,99.90
2019-02-09T23:58:49.109Z,99.90
